Time;durP1;ratioP1;P1;durP2;ratioP2;P2;SDS_P1;SDS_P2;PMS_P1;PMS_P2;Temp;Humidity;BMP_temperature;BMP_pressure;BME280_temperature;BME280_humidity;BME280_pressure;Samples;Min_cycle;Max_cycle;Signal;HPM_P1;HPM_P2
2023/12/24 00:01:04;;;;;;;0.30;0.30;;;;;;;9.00;100.00;100728.66;5096222;28;20413;-49
2023/12/24 00:03:30;;;;;;;0.25;0.25;;;;;;;9.01;100.00;100727.81;5095324;28;20031;-50
2023/12/24 00:05:55;;;;;;;0.20;0.20;;;;;;;9.01;100.00;100725.25;5096173;28;20372;-49
2023/12/24 00:08:20;;;;;;;0.20;0.20;;;;;;;9.01;100.00;100725.25;5095820;28;20051;-50
2023/12/24 00:10:45;;;;;;;0.30;0.30;;;;;;;9.01;100.00;100730.41;5095381;28;20031;-51
2023/12/24 00:13:11;;;;;;;0.25;0.25;;;;;;;9.02;100.00;100727.00;5095774;28;20376;-49
2023/12/24 00:15:36;;;;;;;0.20;0.20;;;;;;;9.01;100.00;100740.69;5096158;28;20036;-51
2023/12/24 00:18:01;;;;;;;0.22;0.22;;;;;;;9.02;100.00;100732.16;5095330;28;20024;-48
2023/12/24 00:20:27;;;;;;;0.30;0.30;;;;;;;9.02;100.00;100742.44;5095708;28;20024;-50
2023/12/24 00:23:06;;;;;;;0.30;0.30;;;;;;;9.02;100.00;100747.59;5095800;28;20388;-50
2023/12/24 00:25:32;;;;;;;0.30;0.30;;;;;;;9.02;100.00;100737.31;5094807;28;20035;-51
2023/12/24 00:28:00;;;;;;;0.30;0.30;;;;;;;9.05;100.00;100733.16;5095726;28;20032;-49
2023/12/24 00:30:28;;;;;;;0.30;0.30;;;;;;;9.07;100.00;100736.63;5094978;28;20020;-50
2023/12/24 00:32:54;;;;;;;0.30;0.30;;;;;;;9.09;100.00;100734.13;5094890;28;20020;-50
2023/12/24 00:35:20;;;;;;;0.30;0.30;;;;;;;9.08;100.00;100714.38;5095216;28;20027;-50
2023/12/24 00:37:47;;;;;;;0.20;0.20;;;;;;;9.11;100.00;100714.47;5094960;28;20043;-49
2023/12/24 00:40:12;;;;;;;0.30;0.30;;;;;;;9.10;100.00;100714.41;5095363;28;20098;-51
2023/12/24 00:42:39;;;;;;;0.30;0.30;;;;;;;9.11;100.00;100705.88;5095244;28;20531;-50
2023/12/24 00:45:05;;;;;;;0.20;0.20;;;;;;;9.11;100.00;100686.19;5094568;28;20066;-50
2023/12/24 00:47:30;;;;;;;0.30;0.30;;;;;;;9.09;100.00;100682.72;5094904;28;20125;-50
2023/12/24 00:49:55;;;;;;;0.30;0.30;;;;;;;9.09;100.00;100658.69;5095198;28;20031;-50
2023/12/24 00:52:20;;;;;;;0.25;0.25;;;;;;;9.05;100.00;100652.56;5094058;28;20028;-47
2023/12/24 00:54:46;;;;;;;0.30;0.30;;;;;;;9.03;100.00;100642.22;5094832;28;20024;-50
2023/12/24 00:57:11;;;;;;;0.20;0.20;;;;;;;9.00;100.00;100641.25;5095116;28;20032;-48
2023/12/24 00:59:38;;;;;;;0.22;0.22;;;;;;;8.98;100.00;100630.06;5094022;28;20035;-51
2023/12/24 01:02:03;;;;;;;0.20;0.20;;;;;;;8.96;100.00;100604.31;5094703;28;20020;-51
2023/12/24 01:04:28;;;;;;;0.30;0.30;;;;;;;8.96;100.00;100598.28;5094729;28;20474;-50
2023/12/24 01:06:54;;;;;;;0.30;0.30;;;;;;;8.98;100.00;100591.50;5094442;28;20020;-49
2023/12/24 01:09:19;;;;;;;0.28;0.28;;;;;;;9.00;100.00;100574.41;5094472;28;20079;-51
2023/12/24 01:11:44;;;;;;;0.30;0.30;;;;;;;8.99;100.00;100588.13;5094952;28;20108;-49
2023/12/24 01:14:10;;;;;;;0.20;0.20;;;;;;;9.03;100.00;100592.53;5093809;28;20051;-48
2023/12/24 01:16:39;;;;;;;0.20;0.20;;;;;;;9.01;100.00;100589.91;5094869;28;20024;-50
2023/12/24 01:19:04;;;;;;;0.30;0.30;;;;;;;9.04;100.00;100592.56;5094736;28;20028;-49
2023/12/24 01:21:30;;;;;;;0.30;0.30;;;;;;;9.04;100.00;100587.44;5093443;28;20077;-48
2023/12/24 01:23:55;;;;;;;0.25;0.25;;;;;;;9.06;100.00;100598.66;5094810;28;20077;-51
2023/12/24 01:26:20;;;;;;;0.30;0.30;;;;;;;9.07;100.00;100584.06;5094510;28;20458;-51
2023/12/24 01:28:46;;;;;;;0.30;0.30;;;;;;;9.09;100.00;100595.28;5093885;28;20036;-50
2023/12/24 01:31:11;;;;;;;0.20;0.20;;;;;;;9.11;100.00;100591.06;5094329;28;20016;-50
2023/12/24 01:33:36;;;;;;;0.30;0.30;;;;;;;9.11;100.00;100603.91;5094371;28;20024;-51
2023/12/24 01:36:02;;;;;;;0.20;0.20;;;;;;;9.14;100.00;100596.31;5093203;28;20387;-49
2023/12/24 01:38:27;;;;;;;0.30;0.30;;;;;;;9.11;100.00;100587.63;5094259;28;20112;-50
2023/12/24 01:40:52;;;;;;;0.20;0.20;;;;;;;9.08;100.00;100596.13;5094469;28;20073;-49
2023/12/24 01:43:17;;;;;;;0.20;0.20;;;;;;;9.05;100.00;100598.56;5093131;28;20390;-50
2023/12/24 01:45:43;;;;;;;0.30;0.30;;;;;;;9.00;100.00;100601.00;5094694;28;20044;-50
2023/12/24 01:48:09;;;;;;;0.30;0.30;;;;;;;8.96;100.00;100596.59;5093274;28;20105;-49
2023/12/24 01:50:36;;;;;;;0.20;0.20;;;;;;;8.90;100.00;100602.41;5094059;28;20084;-48
2023/12/24 01:53:02;;;;;;;0.20;0.20;;;;;;;8.89;100.00;100590.38;5094029;28;20430;-51
2023/12/24 01:55:28;;;;;;;0.20;0.20;;;;;;;8.88;100.00;100609.22;5093154;28;20020;-50
2023/12/24 01:57:53;;;;;;;0.28;0.28;;;;;;;8.83;100.00;100597.91;5094202;28;20089;-50
2023/12/24 02:00:19;;;;;;;0.20;0.20;;;;;;;8.81;100.00;100606.38;5093399;28;20028;-50
2023/12/24 02:02:45;;;;;;;0.30;0.30;;;;;;;8.75;100.00;100604.47;5093205;28;20066;-49
2023/12/24 02:05:11;;;;;;;0.30;0.30;;;;;;;8.71;100.00;100602.63;5093511;28;20380;-49
2023/12/24 02:07:37;;;;;;;0.30;0.30;;;;;;;8.68;100.00;100597.41;5093770;28;20026;-50
2023/12/24 02:10:03;;;;;;;0.20;0.20;;;;;;;8.66;100.00;100599.03;5093132;28;20357;-49
2023/12/24 02:12:28;;;;;;;0.30;0.30;;;;;;;8.64;100.00;100593.84;5093432;28;20174;-50
2023/12/24 02:14:54;;;;;;;0.20;0.20;;;;;;;8.61;100.00;100591.19;5093481;28;20073;-51
2023/12/24 02:17:22;;;;;;;0.20;0.20;;;;;;;8.64;100.00;100595.56;5092747;28;20024;-49
2023/12/24 02:19:47;;;;;;;0.30;0.30;;;;;;;8.64;100.00;100590.41;5093622;28;20024;-50
2023/12/24 02:22:12;;;;;;;0.30;0.30;;;;;;;8.64;100.00;100590.41;5093463;28;20081;-50
2023/12/24 02:24:38;;;;;;;0.25;0.25;;;;;;;8.60;100.00;100583.41;5092686;28;20101;-49
2023/12/24 02:27:21;;;;;;;0.20;0.20;;;;;;;8.59;100.00;100584.25;5093060;28;20030;-50
2023/12/24 02:29:50;;;;;;;0.30;0.30;;;;;;;8.55;100.00;100573.84;5093461;28;20040;-50
2023/12/24 02:32:18;;;;;;;0.30;0.30;;;;;;;8.53;100.00;100572.94;5092205;28;20028;-51
2023/12/24 02:34:45;;;;;;;;;;;;;;;8.58;100.00;100573.09;5093898;28;20074;-50
2023/12/24 02:37:11;;;;;;;0.30;0.30;;;;;;;8.47;100.00;100562.47;5093090;28;19919;-49
2023/12/24 02:39:41;;;;;;;0.40;0.40;;;;;;;8.40;100.00;100561.34;5092512;28;20480;-50
2023/12/24 02:42:07;;;;;;;0.30;0.30;;;;;;;8.37;100.00;100544.97;5093345;28;20027;-51
2023/12/24 02:44:34;;;;;;;0.20;0.20;;;;;;;8.36;100.00;100548.34;5092343;28;20023;-51
2023/12/24 02:46:59;;;;;;;0.30;0.30;;;;;;;8.35;100.00;100526.94;5093189;28;20078;-52
2023/12/24 02:49:25;;;;;;;0.30;0.30;;;;;;;8.34;100.00;100534.56;5092819;28;20055;-51
2023/12/24 02:51:51;;;;;;;0.30;0.30;;;;;;;8.31;100.00;100532.78;5092449;28;20035;-50
2023/12/24 02:54:16;;;;;;;0.30;0.30;;;;;;;8.29;100.00;100526.75;5092738;28;20024;-51
2023/12/24 02:56:41;;;;;;;0.30;0.30;;;;;;;8.27;100.00;100524.94;5093086;28;20035;-50
2023/12/24 02:59:06;;;;;;;0.30;0.30;;;;;;;8.27;100.00;100532.63;5091973;28;20524;-50
2023/12/24 03:01:32;;;;;;;0.25;0.25;;;;;;;8.24;100.00;100539.41;5092584;28;20032;-51
2023/12/24 03:03:58;;;;;;;0.30;0.30;;;;;;;8.24;100.00;100533.41;5093178;28;20028;-49
2023/12/24 03:06:24;;;;;;;0.30;0.30;;;;;;;8.26;100.00;100533.47;5092178;28;20035;-51
2023/12/24 03:08:49;;;;;;;0.30;0.30;;;;;;;8.24;100.00;100531.69;5092717;28;20020;-51
2023/12/24 03:11:14;;;;;;;0.30;0.30;;;;;;;8.24;100.00;100529.13;5092518;28;20376;-51
2023/12/24 03:13:39;;;;;;;0.30;0.30;;;;;;;8.26;100.00;100523.19;5092015;28;20023;-50
2023/12/24 03:16:05;;;;;;;0.30;0.30;;;;;;;8.27;100.00;100514.66;5093085;28;20035;-50
2023/12/24 03:18:30;;;;;;;0.30;0.30;;;;;;;8.27;100.00;100509.53;5092761;28;20031;-51
2023/12/24 03:20:56;;;;;;;0.30;0.30;;;;;;;8.28;100.00;100498.44;5092041;28;20107;-51
2023/12/24 03:23:21;;;;;;;0.30;0.30;;;;;;;8.28;100.00;100498.44;5093275;28;20028;-51
2023/12/24 03:25:47;;;;;;;0.30;0.30;;;;;;;8.30;100.00;100483.94;5097161;28;20471;-49
2023/12/24 03:28:12;;;;;;;0.30;0.30;;;;;;;8.31;100.00;100485.69;5095743;28;20024;-50
2023/12/24 03:30:37;;;;;;;0.30;0.30;;;;;;;8.32;100.00;100483.19;5096674;28;20012;-50
2023/12/24 03:33:03;;;;;;;0.30;0.30;;;;;;;8.32;100.00;100485.75;5096865;28;20028;-52
2023/12/24 03:35:28;;;;;;;0.30;0.30;;;;;;;8.32;100.00;100483.19;5095654;28;20032;-51
2023/12/24 03:37:53;;;;;;;0.30;0.30;;;;;;;8.33;100.00;100476.38;5097024;28;20485;-50
2023/12/24 03:40:19;;;;;;;0.30;0.30;;;;;;;8.33;100.00;100479.78;5096491;28;20035;-49
2023/12/24 03:42:44;;;;;;;0.30;0.30;;;;;;;8.34;100.00;100478.09;5095898;28;20130;-50
2023/12/24 03:45:09;;;;;;;0.30;0.30;;;;;;;8.34;100.00;100475.50;5094328;28;20038;-48
2023/12/24 03:47:35;;;;;;;0.30;0.30;;;;;;;8.34;100.00;100465.25;5094200;28;20048;-50
2023/12/24 03:50:00;;;;;;;0.20;0.20;;;;;;;8.35;100.00;100454.16;5095972;28;20365;-50
2023/12/24 03:52:25;;;;;;;0.30;0.30;;;;;;;8.37;100.00;100460.22;5095463;28;20393;-50
2023/12/24 03:54:50;;;;;;;0.30;0.30;;;;;;;8.38;100.00;100449.13;5095715;28;20165;-49
2023/12/24 03:57:16;;;;;;;0.30;0.30;;;;;;;8.39;100.00;100458.56;5096194;28;20064;-50
2023/12/24 03:59:41;;;;;;;0.30;0.30;;;;;;;8.40;100.00;100455.19;5096358;28;20036;-49
2023/12/24 04:02:06;;;;;;;0.30;0.30;;;;;;;8.41;100.00;100464.63;5095369;28;20028;-51
2023/12/24 04:04:32;;;;;;;0.30;0.30;;;;;;;8.43;100.00;100459.53;5096227;28;20020;-50
2023/12/24 04:06:57;;;;;;;0.30;0.30;;;;;;;8.44;100.00;100459.59;5096202;28;20023;-50
2023/12/24 04:09:22;;;;;;;0.20;0.20;;;;;;;8.46;100.00;100454.56;5094990;28;20028;-51
2023/12/24 04:11:48;;;;;;;0.20;0.20;;;;;;;8.46;100.00;100457.13;5096172;28;20031;-50
2023/12/24 04:14:13;;;;;;;0.20;0.20;;;;;;;8.48;100.00;100460.59;5095539;28;20035;-49
2023/12/24 04:16:39;;;;;;;0.30;0.30;;;;;;;8.49;100.00;100452.94;5095390;28;20452;-50
2023/12/24 04:19:04;;;;;;;0.30;0.30;;;;;;;8.49;100.00;100452.94;5096025;28;20047;-49
2023/12/24 04:21:33;;;;;;;0.32;0.32;;;;;;;8.50;100.00;100439.28;5095889;28;20397;-50
2023/12/24 04:23:58;;;;;;;0.20;0.20;;;;;;;8.51;100.00;100440.16;5095213;28;20046;-51
2023/12/24 04:26:23;;;;;;;0.20;0.20;;;;;;;8.51;100.00;100442.72;5095623;28;20020;-51
2023/12/24 04:28:49;;;;;;;0.30;0.30;;;;;;;8.50;100.00;100444.41;5095578;28;20027;-52
2023/12/24 04:31:14;;;;;;;0.30;0.30;;;;;;;8.50;100.00;100439.28;5094633;28;20028;-50
2023/12/24 04:33:39;;;;;;;0.20;0.20;;;;;;;8.51;100.00;100446.16;5095781;28;20475;-49
2023/12/24 04:36:05;;;;;;;0.30;0.30;;;;;;;8.52;100.00;100447.91;5094338;28;20035;-50
2023/12/24 04:38:30;;;;;;;0.20;0.20;;;;;;;8.53;100.00;100447.09;5094526;28;20491;-52
2023/12/24 04:40:55;;;;;;;0.30;0.30;;;;;;;8.54;100.00;100435.97;5095313;28;20112;-51
2023/12/24 04:43:20;;;;;;;0.30;0.30;;;;;;;8.55;100.00;100437.72;5094830;28;20486;-51
2023/12/24 04:45:46;;;;;;;0.28;0.28;;;;;;;8.56;100.00;100431.75;5094652;28;20031;-51
2023/12/24 04:48:11;;;;;;;0.30;0.30;;;;;;;8.56;100.00;100424.06;5094913;28;20090;-51
2023/12/24 04:50:36;;;;;;;0.20;0.20;;;;;;;8.60;100.00;100434.41;5095610;28;20026;-51
2023/12/24 04:53:02;;;;;;;0.20;0.20;;;;;;;8.60;100.00;100440.44;5094645;28;20039;-50
2023/12/24 04:55:27;;;;;;;0.30;0.30;;;;;;;8.60;100.00;100434.41;5094860;28;20073;-50
2023/12/24 04:57:53;;;;;;;0.20;0.20;;;;;;;8.60;100.00;100434.41;5095259;28;20074;-50
2023/12/24 05:00:18;;;;;;;0.30;0.30;;;;;;;8.60;100.00;100429.28;5094558;28;20077;-51
2023/12/24 05:02:43;;;;;;;0.20;0.20;;;;;;;8.60;100.00;100430.16;5095320;28;20020;-50
2023/12/24 05:05:09;;;;;;;0.20;0.20;;;;;;;8.61;100.00;100415.63;5094441;28;20077;-51
2023/12/24 05:07:34;;;;;;;0.30;0.30;;;;;;;8.61;100.00;100415.63;5095150;28;20028;-50
2023/12/24 05:10:01;;;;;;;0.30;0.30;;;;;;;8.63;100.00;100416.53;5095028;28;20388;-51
2023/12/24 05:12:26;;;;;;;0.28;0.28;;;;;;;8.62;100.00;100419.94;5093978;28;20024;-51
2023/12/24 05:14:52;;;;;;;0.22;0.22;;;;;;;8.62;100.00;100418.22;5094863;28;20058;-51
2023/12/24 05:17:17;;;;;;;0.30;0.30;;;;;;;8.62;100.00;100428.50;5094709;28;20028;-50
2023/12/24 05:19:43;;;;;;;0.30;0.30;;;;;;;8.64;100.00;100420.88;5094127;28;20069;-50
2023/12/24 05:22:08;;;;;;;0.30;0.30;;;;;;;8.65;100.00;100418.34;5094907;28;20460;-51
2023/12/24 05:24:34;;;;;;;0.30;0.30;;;;;;;8.65;100.00;100420.00;5094543;28;20063;-51
2023/12/24 05:26:59;;;;;;;0.20;0.20;;;;;;;8.66;100.00;100414.06;5093956;28;20028;-50
2023/12/24 05:29:24;;;;;;;0.20;0.20;;;;;;;8.67;100.00;100415.81;5094331;28;20463;-51
2023/12/24 05:31:50;;;;;;;0.30;0.30;;;;;;;8.68;100.00;100427.84;5094852;28;20532;-50
2023/12/24 05:34:16;;;;;;;0.30;0.30;;;;;;;8.69;100.00;100425.31;5093262;28;20464;-51
2023/12/24 05:36:41;;;;;;;0.20;0.20;;;;;;;8.70;100.00;100410.75;5094576;28;20088;-51
2023/12/24 05:39:06;;;;;;;0.30;0.30;;;;;;;8.71;100.00;100413.38;5094596;28;20438;-52
2023/12/24 05:41:32;;;;;;;0.30;0.30;;;;;;;8.72;100.00;100414.25;5093460;28;20050;-51
2023/12/24 05:43:58;;;;;;;0.30;0.30;;;;;;;8.72;100.00;100409.13;5094368;28;20464;-52
2023/12/24 05:46:24;;;;;;;0.30;0.30;;;;;;;8.72;100.00;100414.25;5093125;28;20044;-51
2023/12/24 05:48:49;;;;;;;0.20;0.20;;;;;;;8.73;100.00;100413.44;5093629;28;20369;-52
2023/12/24 05:51:15;;;;;;;0.30;0.30;;;;;;;8.75;100.00;100419.47;5093789;28;20078;-51
2023/12/24 05:53:40;;;;;;;0.30;0.30;;;;;;;8.76;100.00;100418.66;5094060;28;20032;-50
2023/12/24 05:56:06;;;;;;;0.30;0.30;;;;;;;8.78;100.00;100413.53;5093378;28;20034;-51
2023/12/24 05:58:31;;;;;;;0.30;0.30;;;;;;;8.79;100.00;100400.78;5093891;28;20398;-49
2023/12/24 06:00:56;;;;;;;0.30;0.30;;;;;;;8.81;100.00;100404.25;5093632;28;20468;-51
2023/12/24 06:03:22;;;;;;;0.30;0.30;;;;;;;8.82;100.00;100407.66;5093009;28;20034;-52
2023/12/24 06:05:47;;;;;;;0.30;0.30;;;;;;;8.83;100.00;100412.00;5094210;28;20107;-51
2023/12/24 06:08:16;;;;;;;0.30;0.30;;;;;;;8.84;100.00;100403.47;5093562;28;20063;-51
2023/12/24 06:10:41;;;;;;;0.20;0.20;;;;;;;8.84;100.00;100400.88;5093559;28;20032;-52
2023/12/24 06:13:07;;;;;;;0.30;0.30;;;;;;;8.84;100.00;100401.75;5093809;28;20052;-51
2023/12/24 06:15:32;;;;;;;0.22;0.22;;;;;;;8.85;100.00;100405.22;5092835;28;20064;-52
2023/12/24 06:17:57;;;;;;;0.20;0.20;;;;;;;8.85;100.00;100393.22;5093064;28;20028;-51
2023/12/24 06:20:23;;;;;;;0.30;0.30;;;;;;;8.84;100.00;100394.03;5093142;28;20027;-50
2023/12/24 06:22:48;;;;;;;0.30;0.30;;;;;;;8.86;100.00;100392.41;5092766;28;20050;-52
2023/12/24 06:25:13;;;;;;;0.30;0.30;;;;;;;8.86;100.00;100397.53;5093370;28;20391;-51
2023/12/24 06:27:39;;;;;;;0.20;0.20;;;;;;;8.88;100.00;100383.06;5093542;28;20039;-52
2023/12/24 06:30:05;;;;;;;0.30;0.30;;;;;;;8.88;100.00;100388.19;5093000;28;20027;-52
2023/12/24 06:32:30;;;;;;;0.22;0.22;;;;;;;8.90;100.00;100383.09;5093276;28;20028;-51
2023/12/24 06:34:55;;;;;;;0.20;0.20;;;;;;;8.90;100.00;100381.38;5093476;28;20043;-53
2023/12/24 06:37:21;;;;;;;0.20;0.20;;;;;;;8.89;100.00;100377.06;5092388;28;20051;-51
2023/12/24 06:39:46;;;;;;;0.30;0.30;;;;;;;8.90;100.00;100376.22;5093368;28;20043;-53
2023/12/24 06:42:11;;;;;;;0.30;0.30;;;;;;;8.91;100.00;100377.13;5092930;28;20028;-52
2023/12/24 06:44:36;;;;;;;0.30;0.30;;;;;;;8.92;100.00;100377.97;5092452;28;20103;-52
2023/12/24 06:47:02;;;;;;;0.30;0.30;;;;;;;8.93;100.00;100382.31;5093043;28;20040;-52
2023/12/24 06:49:27;;;;;;;0.30;0.30;;;;;;;8.93;100.00;100379.72;5092922;28;20149;-52
2023/12/24 06:51:52;;;;;;;0.22;0.22;;;;;;;8.95;100.00;100380.63;5092494;28;20020;-51
2023/12/24 06:54:18;;;;;;;0.20;0.20;;;;;;;8.94;100.00;100384.06;5092719;28;20161;-51
2023/12/24 06:56:43;;;;;;;0.30;0.30;;;;;;;8.98;100.00;100379.03;5092980;28;20031;-52
2023/12/24 06:59:08;;;;;;;0.30;0.30;;;;;;;8.99;100.00;100374.78;5091682;28;20042;-53
2023/12/24 07:01:34;;;;;;;0.30;0.30;;;;;;;9.00;100.00;100376.50;5093027;28;20020;-53
2023/12/24 07:03:59;;;;;;;0.20;0.20;;;;;;;9.01;100.00;100360.25;5092976;28;20073;-51
2023/12/24 07:06:24;;;;;;;0.20;0.20;;;;;;;9.01;100.00;100362.81;5091946;28;20020;-51
2023/12/24 07:08:49;;;;;;;0.30;0.30;;;;;;;9.03;100.00;100379.16;5092626;28;20024;-52
2023/12/24 07:11:15;;;;;;;0.30;0.30;;;;;;;9.04;100.00;100378.34;5092513;28;20387;-53
2023/12/24 07:13:40;;;;;;;0.20;0.20;;;;;;;9.05;100.00;100374.91;5091933;28;20034;-52
2023/12/24 07:16:06;;;;;;;0.30;0.30;;;;;;;9.06;100.00;100379.25;5093109;28;20016;-52
2023/12/24 07:18:31;;;;;;;0.20;0.20;;;;;;;9.06;100.00;100380.13;5092529;28;20028;-52
2023/12/24 07:20:56;;;;;;;0.30;0.30;;;;;;;9.09;100.00;100388.75;5091927;28;20065;-52
2023/12/24 07:23:22;;;;;;;0.30;0.30;;;;;;;9.08;100.00;100382.75;5092357;28;20100;-52
2023/12/24 07:25:47;;;;;;;0.30;0.30;;;;;;;9.10;100.00;100380.22;5091945;28;20048;-53
2023/12/24 07:28:12;;;;;;;0.30;0.30;;;;;;;9.11;100.00;100384.53;5092407;28;20024;-53
2023/12/24 07:30:37;;;;;;;0.20;0.20;;;;;;;9.12;100.00;100379.41;5092900;28;20473;-53
2023/12/24 07:33:03;;;;;;;0.20;0.20;;;;;;;9.12;100.00;100384.56;5091765;28;20025;-53
2023/12/24 07:35:28;;;;;;;0.20;0.20;;;;;;;9.13;100.00;100370.88;5092016;28;20332;-53
2023/12/24 07:37:53;;;;;;;0.30;0.30;;;;;;;9.15;100.00;100379.50;5092448;28;20106;-53
2023/12/24 07:40:19;;;;;;;0.30;0.30;;;;;;;9.15;100.00;100374.34;5092999;28;20032;-54
2023/12/24 07:42:45;;;;;;;0.20;0.20;;;;;;;9.16;100.00;100377.81;5112760;28;20024;-53
2023/12/24 07:45:11;;;;;;;0.30;0.30;;;;;;;9.16;100.00;100380.38;5112755;28;20023;-54
2023/12/24 07:47:36;;;;;;;0.25;0.25;;;;;;;9.17;100.00;100385.56;5111975;28;20054;-54
2023/12/24 07:50:02;;;;;;;0.20;0.20;;;;;;;9.19;100.00;100393.31;5112977;28;20024;-53
2023/12/24 07:52:27;;;;;;;0.30;0.30;;;;;;;9.18;100.00;100387.31;5112590;28;20024;-53
2023/12/24 07:54:53;;;;;;;0.30;0.30;;;;;;;9.19;100.00;100381.34;5112003;28;20039;-53
2023/12/24 07:57:19;;;;;;;0.20;0.20;;;;;;;9.20;100.00;100377.06;5112461;28;20019;-54
2023/12/24 07:59:44;;;;;;;0.20;0.20;;;;;;;9.20;100.00;100375.34;5111609;28;20102;-54
2023/12/24 08:02:09;;;;;;;0.20;0.20;;;;;;;9.22;100.00;100370.28;5091419;28;20147;-53
2023/12/24 08:04:35;;;;;;;0.22;0.22;;;;;;;9.21;100.00;100364.25;5092499;28;20051;-54
2023/12/24 08:07:00;;;;;;;0.30;0.30;;;;;;;9.22;100.00;100368.56;5092204;28;20032;-53
2023/12/24 08:09:28;;;;;;;0.20;0.20;;;;;;;9.21;100.00;100366.81;5092035;28;20035;-54
2023/12/24 08:11:53;;;;;;;0.20;0.20;;;;;;;9.21;100.00;100377.09;5095924;28;20039;-54
2023/12/24 08:14:19;;;;;;;0.30;0.30;;;;;;;9.22;100.00;100372.84;5095868;28;20032;-55
2023/12/24 08:16:44;;;;;;;0.20;0.20;;;;;;;9.21;100.00;100366.81;5095393;28;20093;-54
2023/12/24 08:19:09;;;;;;;0.20;0.20;;;;;;;9.22;100.00;100375.41;5095805;28;20032;-54
2023/12/24 08:21:35;;;;;;;0.20;0.20;;;;;;;9.22;100.00;100375.41;5095807;28;20369;-55
2023/12/24 08:24:00;;;;;;;0.20;0.20;;;;;;;9.22;100.00;100376.28;5095053;28;20426;-54
2023/12/24 08:26:26;;;;;;;0.20;0.20;;;;;;;9.22;100.00;100368.56;5095477;28;20032;-55
2023/12/24 08:28:51;;;;;;;0.20;0.20;;;;;;;9.23;100.00;100366.84;5095890;28;20020;-55
2023/12/24 08:31:17;;;;;;;0.20;0.20;;;;;;;9.23;100.00;100366.84;5094714;28;20456;-55
2023/12/24 08:33:42;;;;;;;0.20;0.20;;;;;;;9.24;100.00;100363.44;5095727;28;20020;-55
2023/12/24 08:36:08;;;;;;;0.30;0.30;;;;;;;9.24;100.00;100358.31;5094250;28;20032;-55
2023/12/24 08:38:33;;;;;;;0.20;0.20;;;;;;;9.25;100.00;100356.63;5095403;28;20475;-55
2023/12/24 08:40:58;;;;;;;0.20;0.20;;;;;;;9.26;100.00;100355.78;5095213;28;20027;-55
2023/12/24 08:43:24;;;;;;;0.20;0.20;;;;;;;9.27;100.00;100358.41;5094309;28;20020;-55
2023/12/24 08:45:49;;;;;;;0.30;0.30;;;;;;;9.28;100.00;100354.97;5095642;28;20028;-55
2023/12/24 08:48:14;;;;;;;0.30;0.30;;;;;;;9.29;100.00;100351.59;5094740;28;20484;-55
2023/12/24 08:50:39;;;;;;;0.30;0.30;;;;;;;9.32;100.00;100361.09;5093961;28;20024;-55
2023/12/24 08:53:05;;;;;;;0.30;0.30;;;;;;;9.33;100.00;100363.69;5095492;28;20032;-55
2023/12/24 08:55:30;;;;;;;0.20;0.20;;;;;;;9.35;100.00;100356.03;5094790;28;20024;-55
2023/12/24 08:57:55;;;;;;;0.20;0.20;;;;;;;9.37;100.00;100354.38;5094698;28;20110;-55
2023/12/24 09:00:21;;;;;;;0.20;0.20;;;;;;;9.37;100.00;100362.97;5095127;28;20122;-55
2023/12/24 09:02:47;;;;;;;0.20;0.20;;;;;;;9.39;100.00;100363.00;5095130;28;20024;-55
2023/12/24 09:05:12;;;;;;;0.28;0.28;;;;;;;9.39;100.00;100376.72;5093879;28;20081;-55
2023/12/24 09:07:38;;;;;;;0.22;0.22;;;;;;;9.42;100.00;100378.50;5095176;28;20081;-55
2023/12/24 09:10:03;;;;;;;0.30;0.30;;;;;;;9.43;100.00;100390.53;5094803;28;20024;-55
2023/12/24 09:12:28;;;;;;;0.20;0.20;;;;;;;9.44;100.00;100387.16;5093886;28;20437;-55
2023/12/24 09:14:54;;;;;;;0.20;0.20;;;;;;;9.47;100.00;100381.22;5095147;28;20024;-55
2023/12/24 09:17:19;;;;;;;0.20;0.20;;;;;;;9.49;100.00;100389.81;5094803;28;20028;-55
2023/12/24 09:19:44;;;;;;;0.30;0.30;;;;;;;9.50;100.00;100386.44;5094301;28;20051;-55
2023/12/24 09:22:10;;;;;;;0.20;0.20;;;;;;;9.51;100.00;100378.75;5093843;28;20107;-56
2023/12/24 09:24:35;;;;;;;0.20;0.20;;;;;;;9.52;100.00;100367.63;5094678;28;20028;-55
2023/12/24 09:27:01;;;;;;;0.30;0.30;;;;;;;9.55;100.00;100369.41;5093098;28;20042;-54
2023/12/24 09:29:26;;;;;;;0.20;0.20;;;;;;;9.56;100.00;100364.31;5105987;28;20023;-55
2023/12/24 09:31:52;;;;;;;0.30;0.30;;;;;;;9.59;100.00;100354.94;5114039;28;20308;-55
2023/12/24 09:34:18;;;;;;;0.30;0.30;;;;;;;9.61;100.00;100355.84;5113198;28;20061;-55
2023/12/24 09:36:43;;;;;;;0.20;0.20;;;;;;;9.62;100.00;100360.16;5113716;28;20023;-55
2023/12/24 09:39:08;;;;;;;0.20;0.20;;;;;;;9.63;100.00;100346.44;5114894;28;20020;-55
2023/12/24 09:41:34;;;;;;;0.20;0.20;;;;;;;9.63;100.00;100352.50;5113107;28;20031;-55
2023/12/24 09:44:00;;;;;;;0.20;0.20;;;;;;;9.64;100.00;100359.34;5114207;28;20024;-56
2023/12/24 09:46:26;;;;;;;0.20;0.20;;;;;;;9.65;100.00;100362.81;5113265;28;20128;-57
2023/12/24 09:48:51;;;;;;;0.30;0.30;;;;;;;9.65;100.00;100365.38;5113236;28;20463;-56
2023/12/24 09:51:18;;;;;;;0.30;0.30;;;;;;;9.66;100.00;100362.00;5113136;28;20023;-56
2023/12/24 09:53:45;;;;;;;0.20;0.20;;;;;;;9.66;100.00;100364.56;5113246;28;20028;-57
2023/12/24 09:56:10;;;;;;;0.20;0.20;;;;;;;9.68;100.00;100365.47;5114336;28;20024;-56
2023/12/24 09:58:36;;;;;;;0.20;0.20;;;;;;;9.68;100.00;100361.19;5114302;28;20104;-56
2023/12/24 10:01:01;;;;;;;0.22;0.22;;;;;;;9.69;100.00;100362.06;5113760;28;20031;-56
2023/12/24 10:03:27;;;;;;;0.20;0.20;;;;;;;9.71;100.00;100360.41;5113342;28;20433;-56
2023/12/24 10:06:03;;;;;;;0.25;0.25;;;;;;;9.71;100.00;100368.13;5114120;28;20031;-56
2023/12/24 10:08:29;;;;;;;0.20;0.20;;;;;;;9.72;100.00;100363.00;5112772;28;20050;-56
2023/12/24 10:10:55;;;;;;;0.20;0.20;;;;;;;9.75;100.00;100362.22;5113470;28;20029;-56
2023/12/24 10:13:21;;;;;;;0.20;0.20;;;;;;;9.79;100.00;100353.72;5113596;28;20020;-57
2023/12/24 10:15:47;;;;;;;0.20;0.20;;;;;;;9.80;100.00;100365.78;5113272;28;20024;-56
2023/12/24 10:18:17;;;;;;;0.30;0.30;;;;;;;9.81;100.00;100382.06;5105496;28;20020;-56
2023/12/24 10:20:42;;;;;;;0.20;0.20;;;;;;;9.83;100.00;100371.00;5093619;28;20028;-56
2023/12/24 10:23:08;;;;;;;0.30;0.30;;;;;;;9.85;100.00;100369.34;5092815;28;20061;-56
2023/12/24 10:25:33;;;;;;;0.20;0.20;;;;;;;9.88;100.00;100364.25;5093494;28;20073;-56
2023/12/24 10:28:06;;;;;;;0.30;0.30;;;;;;;9.91;100.00;100358.31;5104954;28;20023;-54
2023/12/24 10:30:31;;;;;;;0.20;0.20;;;;;;;9.96;100.00;100361.00;5112839;28;20091;-56
2023/12/24 10:33:08;;;;;;;0.30;0.30;;;;;;;9.98;100.00;100349.91;5113838;28;20063;-56
2023/12/24 10:35:33;;;;;;;0.20;0.20;;;;;;;10.02;100.00;100336.28;5112694;28;20035;-56
2023/12/24 10:38:10;;;;;;;0.25;0.25;;;;;;;10.04;100.00;100344.03;5113722;28;20027;-56
2023/12/24 10:40:35;;;;;;;0.30;0.30;;;;;;;10.07;100.00;100338.97;5113832;28;20050;-57
2023/12/24 10:43:01;;;;;;;0.28;0.28;;;;;;;10.09;100.00;100332.13;5112902;28;20383;-56
2023/12/24 10:45:26;;;;;;;0.30;0.30;;;;;;;10.13;100.00;100331.34;5111145;28;20019;-56
2023/12/24 10:47:51;;;;;;;0.20;0.20;;;;;;;10.15;100.00;100326.28;5096754;28;20039;-56
2023/12/24 10:50:17;;;;;;;0.20;0.20;;;;;;;10.17;100.00;100333.19;5096788;28;20051;-57
2023/12/24 10:52:42;;;;;;;0.20;0.20;;;;;;;10.19;100.00;100317.78;5099891;28;20114;-56
2023/12/24 10:55:09;;;;;;;0.30;0.30;;;;;;;10.22;100.00;100322.97;5100045;28;20027;-56
2023/12/24 10:57:50;;;;;;;0.22;0.22;;;;;;;10.24;100.00;100320.44;5099653;28;20460;-56
2023/12/24 11:00:16;;;;;;;0.20;0.20;;;;;;;10.26;100.00;100321.34;5100157;28;20021;-56
2023/12/24 11:02:49;;;;;;;0.20;0.20;;;;;;;10.28;100.00;100312.81;5101071;28;20030;-57
2023/12/24 11:05:39;;;;;;;0.20;0.20;;;;;;;10.31;100.00;100312.03;5105098;28;20497;-57
2023/12/24 11:08:05;;;;;;;0.20;0.20;;;;;;;10.34;100.00;100286.31;5093480;28;20038;-57
2023/12/24 11:10:42;;;;;;;0.20;0.20;;;;;;;10.37;100.00;100292.44;5101880;28;20028;-57
2023/12/24 11:13:08;;;;;;;;;;;;;;;10.43;100.00;100309.75;5100875;28;20425;-57
2023/12/24 11:15:46;;;;;;;0.30;0.30;;;;;;;10.40;100.00;100298.50;5102449;28;19916;-57
2023/12/24 11:18:12;;;;;;;0.30;0.30;;;;;;;10.39;100.00;100300.19;5101255;28;20042;-57